sensor_id;sensor_type;location;lat;lon;timestamp;temperature;humidity
39325;DHT22;25037;49.488;9.900;2022-11-12T00:00:22;7.80;78.30
39325;DHT22;25037;49.488;9.900;2022-11-12T00:02:48;7.80;78.30
39325;DHT22;25037;49.488;9.900;2022-11-12T00:05:13;7.80;78.30
39325;DHT22;25037;49.488;9.900;2022-11-12T00:07:39;7.80;78.30
39325;DHT22;25037;49.488;9.900;2022-11-12T00:10:05;7.70;78.20
39325;DHT22;25037;49.488;9.900;2022-11-12T00:12:31;7.70;78.20
39325;DHT22;25037;49.488;9.900;2022-11-12T00:14:56;7.50;77.90
39325;DHT22;25037;49.488;9.900;2022-11-12T00:17:22;7.50;78.00
39325;DHT22;25037;49.488;9.900;2022-11-12T00:19:48;7.30;77.90
39325;DHT22;25037;49.488;9.900;2022-11-12T00:22:13;7.20;78.00
39325;DHT22;25037;49.488;9.900;2022-11-12T00:24:39;7.10;78.10
39325;DHT22;25037;49.488;9.900;2022-11-12T00:27:05;7.00;78.20
39325;DHT22;25037;49.488;9.900;2022-11-12T00:29:30;6.90;78.40
39325;DHT22;25037;49.488;9.900;2022-11-12T00:31:56;6.80;78.60
39325;DHT22;25037;49.488;9.900;2022-11-12T00:34:21;6.90;78.80
39325;DHT22;25037;49.488;9.900;2022-11-12T00:36:47;6.90;78.80
39325;DHT22;25037;49.488;9.900;2022-11-12T00:39:13;7.00;78.80
39325;DHT22;25037;49.488;9.900;2022-11-12T00:41:38;7.00;78.80
39325;DHT22;25037;49.488;9.900;2022-11-12T00:44:04;7.00;78.80
39325;DHT22;25037;49.488;9.900;2022-11-12T00:46:29;7.00;78.70
39325;DHT22;25037;49.488;9.900;2022-11-12T00:48:55;7.00;78.80
39325;DHT22;25037;49.488;9.900;2022-11-12T00:51:21;7.00;78.80
39325;DHT22;25037;49.488;9.900;2022-11-12T00:53:47;7.00;78.80
39325;DHT22;25037;49.488;9.900;2022-11-12T00:56:13;7.00;78.80
39325;DHT22;25037;49.488;9.900;2022-11-12T00:58:39;7.00;78.70
39325;DHT22;25037;49.488;9.900;2022-11-12T01:01:13;7.00;78.80
39325;DHT22;25037;49.488;9.900;2022-11-12T01:03:39;7.00;78.80
39325;DHT22;25037;49.488;9.900;2022-11-12T01:06:11;7.00;78.70
39325;DHT22;25037;49.488;9.900;2022-11-12T01:08:37;7.00;78.60
39325;DHT22;25037;49.488;9.900;2022-11-12T01:11:08;7.00;78.60
39325;DHT22;25037;49.488;9.900;2022-11-12T01:13:35;7.00;78.60
39325;DHT22;25037;49.488;9.900;2022-11-12T01:16:05;7.00;78.50
39325;DHT22;25037;49.488;9.900;2022-11-12T01:18:31;6.90;78.40
39325;DHT22;25037;49.488;9.900;2022-11-12T01:21:03;6.90;78.40
39325;DHT22;25037;49.488;9.900;2022-11-12T01:23:31;6.90;78.50
39325;DHT22;25037;49.488;9.900;2022-11-12T01:25:56;6.90;78.60
39325;DHT22;25037;49.488;9.900;2022-11-12T01:28:22;6.90;78.50
39325;DHT22;25037;49.488;9.900;2022-11-12T01:30:48;6.90;78.50
39325;DHT22;25037;49.488;9.900;2022-11-12T01:33:13;6.90;78.50
39325;DHT22;25037;49.488;9.900;2022-11-12T01:35:39;6.80;78.40
39325;DHT22;25037;49.488;9.900;2022-11-12T01:38:04;6.80;78.40
39325;DHT22;25037;49.488;9.900;2022-11-12T01:40:31;6.80;78.40
39325;DHT22;25037;49.488;9.900;2022-11-12T01:42:57;6.80;78.40
39325;DHT22;25037;49.488;9.900;2022-11-12T01:45:22;6.80;78.40
39325;DHT22;25037;49.488;9.900;2022-11-12T01:47:50;6.80;78.50
39325;DHT22;25037;49.488;9.900;2022-11-12T01:52:49;6.80;78.50
39325;DHT22;25037;49.488;9.900;2022-11-12T01:55:21;6.80;78.50
39325;DHT22;25037;49.488;9.900;2022-11-12T01:58:08;6.80;78.50
39325;DHT22;25037;49.488;9.900;2022-11-12T02:00:35;6.90;78.40
39325;DHT22;25037;49.488;9.900;2022-11-12T02:03:05;6.80;78.40
39325;DHT22;25037;49.488;9.900;2022-11-12T02:05:32;6.80;78.40
39325;DHT22;25037;49.488;9.900;2022-11-12T02:07:59;6.70;78.40
39325;DHT22;25037;49.488;9.900;2022-11-12T02:10:25;6.80;78.40
39325;DHT22;25037;49.488;9.900;2022-11-12T02:12:52;6.80;78.40
39325;DHT22;25037;49.488;9.900;2022-11-12T02:15:37;6.80;78.50
39325;DHT22;25037;49.488;9.900;2022-11-12T02:18:04;6.80;78.50
39325;DHT22;25037;49.488;9.900;2022-11-12T02:20:34;6.80;78.50
39325;DHT22;25037;49.488;9.900;2022-11-12T02:22:59;6.80;78.50
39325;DHT22;25037;49.488;9.900;2022-11-12T02:25:26;6.80;78.40
39325;DHT22;25037;49.488;9.900;2022-11-12T02:27:53;6.80;78.40
39325;DHT22;25037;49.488;9.900;2022-11-12T02:30:44;6.80;78.50
39325;DHT22;25037;49.488;9.900;2022-11-12T02:33:10;6.80;78.40
39325;DHT22;25037;49.488;9.900;2022-11-12T02:35:36;6.70;78.40
39325;DHT22;25037;49.488;9.900;2022-11-12T02:38:02;6.70;78.50
39325;DHT22;25037;49.488;9.900;2022-11-12T02:40:28;6.70;78.50
39325;DHT22;25037;49.488;9.900;2022-11-12T02:42:53;6.70;78.60
39325;DHT22;25037;49.488;9.900;2022-11-12T02:45:19;6.80;78.50
39325;DHT22;25037;49.488;9.900;2022-11-12T02:47:45;6.70;78.40
39325;DHT22;25037;49.488;9.900;2022-11-12T02:50:11;6.70;78.40
39325;DHT22;25037;49.488;9.900;2022-11-12T02:52:37;6.70;78.50
39325;DHT22;25037;49.488;9.900;2022-11-12T02:55:07;6.60;78.50
39325;DHT22;25037;49.488;9.900;2022-11-12T02:57:34;6.70;78.50
39325;DHT22;25037;49.488;9.900;2022-11-12T02:59:59;6.70;78.60
39325;DHT22;25037;49.488;9.900;2022-11-12T03:02:25;6.70;78.50
39325;DHT22;25037;49.488;9.900;2022-11-12T03:04:50;6.60;78.30
39325;DHT22;25037;49.488;9.900;2022-11-12T03:07:16;6.60;78.40
39325;DHT22;25037;49.488;9.900;2022-11-12T03:09:42;6.50;78.40
39325;DHT22;25037;49.488;9.900;2022-11-12T03:12:07;6.50;78.50
39325;DHT22;25037;49.488;9.900;2022-11-12T03:14:33;6.50;78.50
39325;DHT22;25037;49.488;9.900;2022-11-12T03:16:58;6.60;78.40
39325;DHT22;25037;49.488;9.900;2022-11-12T03:19:24;6.50;78.30
39325;DHT22;25037;49.488;9.900;2022-11-12T03:21:49;6.40;78.20
39325;DHT22;25037;49.488;9.900;2022-11-12T03:24:15;6.40;78.30
39325;DHT22;25037;49.488;9.900;2022-11-12T03:26:40;6.40;78.30
39325;DHT22;25037;49.488;9.900;2022-11-12T03:29:06;6.40;78.30
39325;DHT22;25037;49.488;9.900;2022-11-12T03:31:32;6.40;78.40
39325;DHT22;25037;49.488;9.900;2022-11-12T03:33:57;6.30;78.30
39325;DHT22;25037;49.488;9.900;2022-11-12T03:36:23;6.30;78.20
39325;DHT22;25037;49.488;9.900;2022-11-12T03:38:48;6.30;78.20
39325;DHT22;25037;49.488;9.900;2022-11-12T03:41:14;6.30;78.30
39325;DHT22;25037;49.488;9.900;2022-11-12T03:43:39;6.30;78.20
39325;DHT22;25037;49.488;9.900;2022-11-12T03:46:05;6.30;78.00
39325;DHT22;25037;49.488;9.900;2022-11-12T03:48:30;6.20;78.00
39325;DHT22;25037;49.488;9.900;2022-11-12T03:50:57;6.20;78.00
39325;DHT22;25037;49.488;9.900;2022-11-12T03:53:23;6.10;78.10
39325;DHT22;25037;49.488;9.900;2022-11-12T03:55:48;6.10;78.10
39325;DHT22;25037;49.488;9.900;2022-11-12T03:58:14;6.10;78.10
39325;DHT22;25037;49.488;9.900;2022-11-12T04:00:39;6.00;78.10
39325;DHT22;25037;49.488;9.900;2022-11-12T04:03:05;6.00;78.10
39325;DHT22;25037;49.488;9.900;2022-11-12T04:05:30;6.00;78.10
39325;DHT22;25037;49.488;9.900;2022-11-12T04:08:17;5.90;78.00
39325;DHT22;25037;49.488;9.900;2022-11-12T04:11:07;6.00;78.00
39325;DHT22;25037;49.488;9.900;2022-11-12T04:13:34;5.90;77.80
39325;DHT22;25037;49.488;9.900;2022-11-12T04:16:04;5.80;77.80
39325;DHT22;25037;49.488;9.900;2022-11-12T04:18:50;5.70;77.90
39325;DHT22;25037;49.488;9.900;2022-11-12T04:21:40;5.70;77.90
39325;DHT22;25037;49.488;9.900;2022-11-12T04:24:29;5.70;78.10
39325;DHT22;25037;49.488;9.900;2022-11-12T04:27:15;5.70;78.10
39325;DHT22;25037;49.488;9.900;2022-11-12T04:29:42;5.70;78.10
39325;DHT22;25037;49.488;9.900;2022-11-12T04:32:27;5.80;78.10
39325;DHT22;25037;49.488;9.900;2022-11-12T04:34:54;5.80;78.00
39325;DHT22;25037;49.488;9.900;2022-11-12T04:37:21;5.80;78.00
39325;DHT22;25037;49.488;9.900;2022-11-12T04:39:47;5.80;78.10
39325;DHT22;25037;49.488;9.900;2022-11-12T04:42:12;5.90;78.00
39325;DHT22;25037;49.488;9.900;2022-11-12T04:44:57;5.90;78.00
39325;DHT22;25037;49.488;9.900;2022-11-12T04:47:34;6.00;77.90
39325;DHT22;25037;49.488;9.900;2022-11-12T04:50:02;5.90;77.70
39325;DHT22;25037;49.488;9.900;2022-11-12T04:52:29;5.80;77.80
39325;DHT22;25037;49.488;9.900;2022-11-12T04:54:55;5.80;77.90
39325;DHT22;25037;49.488;9.900;2022-11-12T04:57:21;5.70;77.90
39325;DHT22;25037;49.488;9.900;2022-11-12T04:59:47;5.70;78.00
39325;DHT22;25037;49.488;9.900;2022-11-12T05:02:14;5.70;78.20
39325;DHT22;25037;49.488;9.900;2022-11-12T05:04:40;5.70;78.20
39325;DHT22;25037;49.488;9.900;2022-11-12T05:07:05;5.70;78.30
39325;DHT22;25037;49.488;9.900;2022-11-12T05:09:31;5.80;78.40
39325;DHT22;25037;49.488;9.900;2022-11-12T05:11:56;5.80;78.30
39325;DHT22;25037;49.488;9.900;2022-11-12T05:14:23;5.90;78.30
39325;DHT22;25037;49.488;9.900;2022-11-12T05:16:49;5.90;78.20
39325;DHT22;25037;49.488;9.900;2022-11-12T05:19:14;5.90;78.00
39325;DHT22;25037;49.488;9.900;2022-11-12T05:21:40;5.90;78.00
39325;DHT22;25037;49.488;9.900;2022-11-12T05:24:24;5.90;78.10
39325;DHT22;25037;49.488;9.900;2022-11-12T05:26:50;5.90;77.90
39325;DHT22;25037;49.488;9.900;2022-11-12T05:29:16;5.80;78.00
39325;DHT22;25037;49.488;9.900;2022-11-12T05:31:42;5.80;78.10
39325;DHT22;25037;49.488;9.900;2022-11-12T05:34:08;5.80;78.20
39325;DHT22;25037;49.488;9.900;2022-11-12T05:36:34;5.90;78.20
39325;DHT22;25037;49.488;9.900;2022-11-12T05:38:59;5.90;78.00
39325;DHT22;25037;49.488;9.900;2022-11-12T05:41:25;5.90;77.90
39325;DHT22;25037;49.488;9.900;2022-11-12T05:43:51;5.90;77.80
39325;DHT22;25037;49.488;9.900;2022-11-12T05:46:17;5.80;77.80
39325;DHT22;25037;49.488;9.900;2022-11-12T05:48:42;5.80;77.70
39325;DHT22;25037;49.488;9.900;2022-11-12T05:51:08;5.80;77.80
39325;DHT22;25037;49.488;9.900;2022-11-12T05:53:33;5.80;77.90
39325;DHT22;25037;49.488;9.900;2022-11-12T05:56:03;5.80;77.80
39325;DHT22;25037;49.488;9.900;2022-11-12T05:58:29;5.80;77.90
39325;DHT22;25037;49.488;9.900;2022-11-12T06:00:56;5.80;77.90
39325;DHT22;25037;49.488;9.900;2022-11-12T06:03:21;5.80;77.90
39325;DHT22;25037;49.488;9.900;2022-11-12T06:05:47;5.80;77.80
39325;DHT22;25037;49.488;9.900;2022-11-12T06:08:12;5.80;77.70
39325;DHT22;25037;49.488;9.900;2022-11-12T06:10:38;5.70;77.60
39325;DHT22;25037;49.488;9.900;2022-11-12T06:13:03;5.60;77.60
39325;DHT22;25037;49.488;9.900;2022-11-12T06:15:29;5.50;77.70
39325;DHT22;25037;49.488;9.900;2022-11-12T06:17:54;5.50;78.00
39325;DHT22;25037;49.488;9.900;2022-11-12T06:20:21;5.50;78.00
39325;DHT22;25037;49.488;9.900;2022-11-12T06:22:48;5.40;78.00
39325;DHT22;25037;49.488;9.900;2022-11-12T06:25:13;5.40;78.10
39325;DHT22;25037;49.488;9.900;2022-11-12T06:27:39;5.40;78.30
39325;DHT22;25037;49.488;9.900;2022-11-12T06:30:05;5.50;78.30
39325;DHT22;25037;49.488;9.900;2022-11-12T06:32:31;5.50;78.30
39325;DHT22;25037;49.488;9.900;2022-11-12T06:34:57;5.60;78.30
39325;DHT22;25037;49.488;9.900;2022-11-12T06:37:23;5.70;78.30
39325;DHT22;25037;49.488;9.900;2022-11-12T06:39:49;5.70;78.10
39325;DHT22;25037;49.488;9.900;2022-11-12T06:42:14;5.70;77.90
39325;DHT22;25037;49.488;9.900;2022-11-12T06:44:40;5.70;78.00
39325;DHT22;25037;49.488;9.900;2022-11-12T06:47:06;5.70;78.00
39325;DHT22;25037;49.488;9.900;2022-11-12T06:49:31;5.70;78.10
39325;DHT22;25037;49.488;9.900;2022-11-12T06:51:57;5.70;78.10
39325;DHT22;25037;49.488;9.900;2022-11-12T06:54:23;5.80;78.10
39325;DHT22;25037;49.488;9.900;2022-11-12T06:56:48;5.80;78.10
39325;DHT22;25037;49.488;9.900;2022-11-12T06:59:14;5.80;78.10
39325;DHT22;25037;49.488;9.900;2022-11-12T07:01:39;5.80;77.90
39325;DHT22;25037;49.488;9.900;2022-11-12T07:04:05;5.80;77.70
39325;DHT22;25037;49.488;9.900;2022-11-12T07:06:32;5.70;77.40
39325;DHT22;25037;49.488;9.900;2022-11-12T07:08:58;5.60;77.40
39325;DHT22;25037;49.488;9.900;2022-11-12T07:11:23;5.40;77.60
39325;DHT22;25037;49.488;9.900;2022-11-12T07:13:49;5.40;77.80
39325;DHT22;25037;49.488;9.900;2022-11-12T07:16:14;5.30;77.90
39325;DHT22;25037;49.488;9.900;2022-11-12T07:18:44;5.30;77.90
39325;DHT22;25037;49.488;9.900;2022-11-12T07:21:12;5.30;78.00
39325;DHT22;25037;49.488;9.900;2022-11-12T07:23:38;5.30;78.20
39325;DHT22;25037;49.488;9.900;2022-11-12T07:26:15;5.40;78.30
39325;DHT22;25037;49.488;9.900;2022-11-12T07:28:42;5.50;78.30
39325;DHT22;25037;49.488;9.900;2022-11-12T07:31:12;5.60;78.20
39325;DHT22;25037;49.488;9.900;2022-11-12T07:33:38;5.70;78.20
39325;DHT22;25037;49.488;9.900;2022-11-12T07:36:06;5.80;78.10
39325;DHT22;25037;49.488;9.900;2022-11-12T07:38:34;5.80;77.90
39325;DHT22;25037;49.488;9.900;2022-11-12T07:43:33;5.80;77.60
39325;DHT22;25037;49.488;9.900;2022-11-12T07:46:01;5.80;77.70
39325;DHT22;25037;49.488;9.900;2022-11-12T07:48:30;5.80;77.90
39325;DHT22;25037;49.488;9.900;2022-11-12T07:53:26;6.10;77.90
39325;DHT22;25037;49.488;9.900;2022-11-12T07:55:55;6.20;77.90
39325;DHT22;25037;49.488;9.900;2022-11-12T07:58:22;6.20;77.60
39325;DHT22;25037;49.488;9.900;2022-11-12T08:00:48;6.30;77.60
39325;DHT22;25037;49.488;9.900;2022-11-12T08:03:14;6.40;77.50
39325;DHT22;25037;49.488;9.900;2022-11-12T08:05:39;6.50;77.40
39325;DHT22;25037;49.488;9.900;2022-11-12T08:08:05;6.60;77.30
39325;DHT22;25037;49.488;9.900;2022-11-12T08:10:30;6.70;77.20
39325;DHT22;25037;49.488;9.900;2022-11-12T08:12:56;6.80;77.20
39325;DHT22;25037;49.488;9.900;2022-11-12T08:15:21;6.90;77.10
39325;DHT22;25037;49.488;9.900;2022-11-12T08:17:47;7.00;76.80
39325;DHT22;25037;49.488;9.900;2022-11-12T08:20:13;7.00;76.60
39325;DHT22;25037;49.488;9.900;2022-11-12T08:22:39;7.00;76.30
39325;DHT22;25037;49.488;9.900;2022-11-12T08:25:05;7.00;76.50
39325;DHT22;25037;49.488;9.900;2022-11-12T08:27:31;7.10;76.30
39325;DHT22;25037;49.488;9.900;2022-11-12T08:29:57;7.10;76.20
39325;DHT22;25037;49.488;9.900;2022-11-12T08:32:23;7.20;76.30
39325;DHT22;25037;49.488;9.900;2022-11-12T08:34:48;7.30;76.10
39325;DHT22;25037;49.488;9.900;2022-11-12T08:37:14;7.30;75.80
39325;DHT22;25037;49.488;9.900;2022-11-12T08:39:40;7.40;75.90
39325;DHT22;25037;49.488;9.900;2022-11-12T08:42:05;7.50;75.90
39325;DHT22;25037;49.488;9.900;2022-11-12T08:44:31;7.70;75.80
39325;DHT22;25037;49.488;9.900;2022-11-12T08:46:56;7.80;75.70
39325;DHT22;25037;49.488;9.900;2022-11-12T08:49:23;8.10;75.60
39325;DHT22;25037;49.488;9.900;2022-11-12T08:51:49;8.20;75.30
39325;DHT22;25037;49.488;9.900;2022-11-12T08:54:14;8.30;75.10
39325;DHT22;25037;49.488;9.900;2022-11-12T08:56:40;8.50;74.90
39325;DHT22;25037;49.488;9.900;2022-11-12T08:59:05;8.50;74.80
39325;DHT22;25037;49.488;9.900;2022-11-12T09:01:31;8.70;74.70
39325;DHT22;25037;49.488;9.900;2022-11-12T09:03:56;8.70;74.50
39325;DHT22;25037;49.488;9.900;2022-11-12T09:06:22;8.80;74.60
39325;DHT22;25037;49.488;9.900;2022-11-12T09:08:47;8.80;74.50
39325;DHT22;25037;49.488;9.900;2022-11-12T09:11:13;8.80;74.40
39325;DHT22;25037;49.488;9.900;2022-11-12T09:13:40;8.90;74.40
39325;DHT22;25037;49.488;9.900;2022-11-12T09:16:07;9.00;74.40
39325;DHT22;25037;49.488;9.900;2022-11-12T09:18:33;9.00;74.30
39325;DHT22;25037;49.488;9.900;2022-11-12T09:21:00;9.10;74.10
39325;DHT22;25037;49.488;9.900;2022-11-12T09:23:26;9.10;74.00
39325;DHT22;25037;49.488;9.900;2022-11-12T09:25:54;9.10;74.00
39325;DHT22;25037;49.488;9.900;2022-11-12T09:28:19;9.20;74.00
39325;DHT22;25037;49.488;9.900;2022-11-12T09:30:47;9.30;73.90
39325;DHT22;25037;49.488;9.900;2022-11-12T09:33:18;9.30;73.80
39325;DHT22;25037;49.488;9.900;2022-11-12T09:35:44;9.40;73.70
39325;DHT22;25037;49.488;9.900;2022-11-12T09:38:10;9.40;73.70
39325;DHT22;25037;49.488;9.900;2022-11-12T09:45:55;9.60;73.10
39325;DHT22;25037;49.488;9.900;2022-11-12T09:48:24;9.70;73.20
39325;DHT22;25037;49.488;9.900;2022-11-12T09:53:31;9.80;73.20
39325;DHT22;25037;49.488;9.900;2022-11-12T09:55:59;9.80;73.20
39325;DHT22;25037;49.488;9.900;2022-11-12T09:58:26;9.90;73.50
39325;DHT22;25037;49.488;9.900;2022-11-12T10:03:57;10.20;72.70
39325;DHT22;25037;49.488;9.900;2022-11-12T10:06:35;10.20;72.50
39325;DHT22;25037;49.488;9.900;2022-11-12T10:09:19;10.20;72.40
39325;DHT22;25037;49.488;9.900;2022-11-12T10:18:50;10.30;72.50
39325;DHT22;25037;49.488;9.900;2022-11-12T10:21:40;10.40;72.50
39325;DHT22;25037;49.488;9.900;2022-11-12T10:24:10;10.60;72.30
39325;DHT22;25037;49.488;9.900;2022-11-12T10:26:37;10.60;72.20
39325;DHT22;25037;49.488;9.900;2022-11-12T10:31:42;10.80;71.90
39325;DHT22;25037;49.488;9.900;2022-11-12T10:34:19;10.80;71.80
39325;DHT22;25037;49.488;9.900;2022-11-12T10:36:50;10.90;71.70
39325;DHT22;25037;49.488;9.900;2022-11-12T10:39:41;11.00;71.80
39325;DHT22;25037;49.488;9.900;2022-11-12T10:42:15;11.10;71.60
39325;DHT22;25037;49.488;9.900;2022-11-12T10:44:41;11.10;71.70
39325;DHT22;25037;49.488;9.900;2022-11-12T10:47:27;11.20;71.60
39325;DHT22;25037;49.488;9.900;2022-11-12T10:50:15;11.20;71.50
39325;DHT22;25037;49.488;9.900;2022-11-12T10:52:56;11.40;71.50
39325;DHT22;25037;49.488;9.900;2022-11-12T10:55:23;11.50;71.20
39325;DHT22;25037;49.488;9.900;2022-11-12T11:00:30;11.70;71.30
39325;DHT22;25037;49.488;9.900;2022-11-12T11:02:56;11.80;71.30
39325;DHT22;25037;49.488;9.900;2022-11-12T11:08:49;12.10;70.40
39325;DHT22;25037;49.488;9.900;2022-11-12T11:13:41;12.20;70.40
39325;DHT22;25037;49.488;9.900;2022-11-12T11:16:15;12.30;70.40
39325;DHT22;25037;49.488;9.900;2022-11-12T11:18:46;12.40;70.40
39325;DHT22;25037;49.488;9.900;2022-11-12T11:27:36;12.70;70.00
39325;DHT22;25037;49.488;9.900;2022-11-12T11:30:10;12.80;70.00
39325;DHT22;25037;49.488;9.900;2022-11-12T11:35:23;12.90;70.10
39325;DHT22;25037;49.488;9.900;2022-11-12T11:43:56;12.90;70.00
39325;DHT22;25037;49.488;9.900;2022-11-12T11:49:34;13.00;70.30
39325;DHT22;25037;49.488;9.900;2022-11-12T11:57:59;13.30;70.30
39325;DHT22;25037;49.488;9.900;2022-11-12T12:00:47;13.50;70.00
39325;DHT22;25037;49.488;9.900;2022-11-12T12:03:23;13.60;69.90
39325;DHT22;25037;49.488;9.900;2022-11-12T12:11:57;13.90;69.50
39325;DHT22;25037;49.488;9.900;2022-11-12T12:17:12;14.10;69.30
39325;DHT22;25037;49.488;9.900;2022-11-12T12:22:38;14.30;69.20
39325;DHT22;25037;49.488;9.900;2022-11-12T12:25:12;14.30;69.10
39325;DHT22;25037;49.488;9.900;2022-11-12T12:28:04;14.30;69.10
39325;DHT22;25037;49.488;9.900;2022-11-12T12:30:34;14.30;69.20
39325;DHT22;25037;49.488;9.900;2022-11-12T12:33:26;14.40;69.20
39325;DHT22;25037;49.488;9.900;2022-11-12T12:36:01;14.50;69.10
39325;DHT22;25037;49.488;9.900;2022-11-12T12:38:31;14.60;69.00
39325;DHT22;25037;49.488;9.900;2022-11-12T12:41:11;14.60;69.00
39325;DHT22;25037;49.488;9.900;2022-11-12T12:43:48;14.70;68.70
39325;DHT22;25037;49.488;9.900;2022-11-12T12:46:16;14.60;68.80
39325;DHT22;25037;49.488;9.900;2022-11-12T12:48:45;14.70;68.80
39325;DHT22;25037;49.488;9.900;2022-11-12T12:51:11;14.70;68.60
39325;DHT22;25037;49.488;9.900;2022-11-12T12:53:37;14.60;68.60
39325;DHT22;25037;49.488;9.900;2022-11-12T12:58:53;14.50;68.90
39325;DHT22;25037;49.488;9.900;2022-11-12T13:03:54;14.50;69.10
39325;DHT22;25037;49.488;9.900;2022-11-12T13:09:03;14.70;69.10
39325;DHT22;25037;49.488;9.900;2022-11-12T13:37:57;14.40;68.90
39325;DHT22;25037;49.488;9.900;2022-11-12T13:43:04;14.10;69.40
39325;DHT22;25037;49.488;9.900;2022-11-12T13:45:33;14.00;69.60
39325;DHT22;25037;49.488;9.900;2022-11-12T13:48:07;13.90;69.80
39325;DHT22;25037;49.488;9.900;2022-11-12T13:50:33;13.80;69.90
39325;DHT22;25037;49.488;9.900;2022-11-12T13:52:59;13.70;70.00
39325;DHT22;25037;49.488;9.900;2022-11-12T13:55:25;13.60;70.10
39325;DHT22;25037;49.488;9.900;2022-11-12T13:57:53;13.50;70.20
39325;DHT22;25037;49.488;9.900;2022-11-12T14:00:24;13.40;70.30
39325;DHT22;25037;49.488;9.900;2022-11-12T14:02:59;13.30;70.50
39325;DHT22;25037;49.488;9.900;2022-11-12T14:05:28;13.30;70.70
39325;DHT22;25037;49.488;9.900;2022-11-12T14:13:34;13.10;70.80
39325;DHT22;25037;49.488;9.900;2022-11-12T14:22:21;12.90;71.10
39325;DHT22;25037;49.488;9.900;2022-11-12T14:24:53;12.90;71.20
39325;DHT22;25037;49.488;9.900;2022-11-12T14:27:32;12.80;71.40
39325;DHT22;25037;49.488;9.900;2022-11-12T14:32:36;12.80;71.60
39325;DHT22;25037;49.488;9.900;2022-11-12T14:37:48;12.60;71.70
39325;DHT22;25037;49.488;9.900;2022-11-12T14:40:19;12.40;71.80
39325;DHT22;25037;49.488;9.900;2022-11-12T14:42:45;12.30;72.20
39325;DHT22;25037;49.488;9.900;2022-11-12T14:45:18;12.20;72.50
39325;DHT22;25037;49.488;9.900;2022-11-12T14:47:46;12.00;72.80
39325;DHT22;25037;49.488;9.900;2022-11-12T14:50:26;11.90;72.90
39325;DHT22;25037;49.488;9.900;2022-11-12T14:53:01;11.80;73.20
39325;DHT22;25037;49.488;9.900;2022-11-12T14:55:32;11.70;73.40
39325;DHT22;25037;49.488;9.900;2022-11-12T14:57:59;11.60;73.50
39325;DHT22;25037;49.488;9.900;2022-11-12T15:03:00;11.40;74.00
39325;DHT22;25037;49.488;9.900;2022-11-12T15:05:26;11.30;74.30
39325;DHT22;25037;49.488;9.900;2022-11-12T15:10:38;11.10;74.70
39325;DHT22;25037;49.488;9.900;2022-11-12T15:13:21;11.10;74.90
39325;DHT22;25037;49.488;9.900;2022-11-12T15:15:58;11.00;75.10
39325;DHT22;25037;49.488;9.900;2022-11-12T15:18:28;10.90;75.20
39325;DHT22;25037;49.488;9.900;2022-11-12T15:21:23;10.80;75.20
39325;DHT22;25037;49.488;9.900;2022-11-12T15:23:52;10.80;75.50
39325;DHT22;25037;49.488;9.900;2022-11-12T15:26:35;10.70;75.50
39325;DHT22;25037;49.488;9.900;2022-11-12T15:31:48;10.60;76.00
39325;DHT22;25037;49.488;9.900;2022-11-12T15:37:00;10.40;76.50
39325;DHT22;25037;49.488;9.900;2022-11-12T15:39:28;10.40;76.40
39325;DHT22;25037;49.488;9.900;2022-11-12T15:42:00;10.30;76.60
39325;DHT22;25037;49.488;9.900;2022-11-12T15:44:31;10.20;76.90
39325;DHT22;25037;49.488;9.900;2022-11-12T15:46:58;10.20;77.00
39325;DHT22;25037;49.488;9.900;2022-11-12T15:49:24;10.20;77.10
39325;DHT22;25037;49.488;9.900;2022-11-12T15:51:49;10.10;77.20
39325;DHT22;25037;49.488;9.900;2022-11-12T15:54:15;10.10;77.20
39325;DHT22;25037;49.488;9.900;2022-11-12T15:56:40;10.10;77.20
39325;DHT22;25037;49.488;9.900;2022-11-12T15:59:10;10.10;77.20
39325;DHT22;25037;49.488;9.900;2022-11-12T16:01:38;10.10;77.30
39325;DHT22;25037;49.488;9.900;2022-11-12T16:04:04;10.10;77.30
39325;DHT22;25037;49.488;9.900;2022-11-12T16:06:29;10.10;77.30
39325;DHT22;25037;49.488;9.900;2022-11-12T16:08:55;10.10;77.40
39325;DHT22;25037;49.488;9.900;2022-11-12T16:11:20;10.00;77.40
39325;DHT22;25037;49.488;9.900;2022-11-12T16:14:06;10.00;77.50
39325;DHT22;25037;49.488;9.900;2022-11-12T16:16:35;10.00;77.50
39325;DHT22;25037;49.488;9.900;2022-11-12T16:19:01;10.00;77.50
39325;DHT22;25037;49.488;9.900;2022-11-12T16:21:26;9.90;77.60
39325;DHT22;25037;49.488;9.900;2022-11-12T16:23:52;9.80;77.60
39325;DHT22;25037;49.488;9.900;2022-11-12T16:26:23;9.80;77.70
39325;DHT22;25037;49.488;9.900;2022-11-12T16:28:49;9.70;77.90
39325;DHT22;25037;49.488;9.900;2022-11-12T16:31:14;9.70;78.00
39325;DHT22;25037;49.488;9.900;2022-11-12T16:33:40;9.70;78.10
39325;DHT22;25037;49.488;9.900;2022-11-12T16:36:13;9.70;78.20
39325;DHT22;25037;49.488;9.900;2022-11-12T16:38:39;9.60;78.30
39325;DHT22;25037;49.488;9.900;2022-11-12T16:41:08;9.60;78.40
39325;DHT22;25037;49.488;9.900;2022-11-12T16:43:33;9.60;78.50
39325;DHT22;25037;49.488;9.900;2022-11-12T16:45:59;9.70;78.50
39325;DHT22;25037;49.488;9.900;2022-11-12T16:48:24;9.70;78.40
39325;DHT22;25037;49.488;9.900;2022-11-12T16:50:50;9.70;78.40
39325;DHT22;25037;49.488;9.900;2022-11-12T16:53:15;9.60;78.50
39325;DHT22;25037;49.488;9.900;2022-11-12T16:55:41;9.60;78.40
39325;DHT22;25037;49.488;9.900;2022-11-12T16:58:13;9.50;78.50
39325;DHT22;25037;49.488;9.900;2022-11-12T17:00:40;9.60;78.70
39325;DHT22;25037;49.488;9.900;2022-11-12T17:03:11;9.50;78.60
39325;DHT22;25037;49.488;9.900;2022-11-12T17:05:37;9.50;78.70
39325;DHT22;25037;49.488;9.900;2022-11-12T17:08:03;9.50;78.70
39325;DHT22;25037;49.488;9.900;2022-11-12T17:10:30;9.50;78.80
39325;DHT22;25037;49.488;9.900;2022-11-12T17:12:55;9.60;78.70
39325;DHT22;25037;49.488;9.900;2022-11-12T17:15:21;9.60;78.70
39325;DHT22;25037;49.488;9.900;2022-11-12T17:17:46;9.60;78.60
39325;DHT22;25037;49.488;9.900;2022-11-12T17:20:12;9.60;78.60
39325;DHT22;25037;49.488;9.900;2022-11-12T17:22:37;9.50;78.60
39325;DHT22;25037;49.488;9.900;2022-11-12T17:25:04;9.60;78.70
39325;DHT22;25037;49.488;9.900;2022-11-12T17:27:30;9.60;78.70
39325;DHT22;25037;49.488;9.900;2022-11-12T17:29:55;9.60;78.70
39325;DHT22;25037;49.488;9.900;2022-11-12T17:32:21;9.70;78.60
39325;DHT22;25037;49.488;9.900;2022-11-12T17:34:48;9.60;78.50
39325;DHT22;25037;49.488;9.900;2022-11-12T17:37:13;9.60;78.50
39325;DHT22;25037;49.488;9.900;2022-11-12T17:39:39;9.50;78.50
39325;DHT22;25037;49.488;9.900;2022-11-12T17:42:05;9.50;78.60
39325;DHT22;25037;49.488;9.900;2022-11-12T17:44:30;9.40;78.60
39325;DHT22;25037;49.488;9.900;2022-11-12T17:46:56;9.40;78.60
39325;DHT22;25037;49.488;9.900;2022-11-12T17:49:21;9.30;78.60
39325;DHT22;25037;49.488;9.900;2022-11-12T17:51:47;9.30;78.70
39325;DHT22;25037;49.488;9.900;2022-11-12T17:54:12;9.30;78.80
39325;DHT22;25037;49.488;9.900;2022-11-12T17:56:40;9.30;78.90
39325;DHT22;25037;49.488;9.900;2022-11-12T17:59:05;9.40;78.80
39325;DHT22;25037;49.488;9.900;2022-11-12T18:01:32;9.40;78.80
39325;DHT22;25037;49.488;9.900;2022-11-12T18:03:58;9.40;78.70
39325;DHT22;25037;49.488;9.900;2022-11-12T18:06:32;9.40;78.70